createdAt,value
2023-04-28T00:01:20.154Z,7.13
2023-04-28T00:03:51.295Z,7.12
2023-04-28T00:06:22.328Z,7.08
2023-04-28T00:08:53.103Z,7.06
2023-04-28T00:11:23.977Z,7.03
2023-04-28T00:13:55.099Z,7.02
2023-04-28T00:16:26.620Z,7.00
2023-04-28T00:18:57.628Z,6.98
2023-04-28T00:21:28.660Z,6.97
2023-04-28T00:23:59.612Z,6.97
2023-04-28T00:26:30.239Z,6.96
2023-04-28T00:29:01.061Z,6.95
2023-04-28T00:31:32.195Z,6.93
2023-04-28T00:34:03.739Z,6.92
2023-04-28T00:36:35.910Z,6.91
2023-04-28T00:39:06.718Z,6.92
2023-04-28T00:41:38.594Z,6.93
2023-04-28T00:44:09.792Z,6.93
2023-04-28T00:46:40.721Z,6.95
2023-04-28T00:49:12.042Z,6.96
2023-04-28T00:51:42.760Z,6.98
2023-04-28T00:54:16.003Z,7.00
2023-04-28T00:56:46.871Z,7.01
2023-04-28T00:59:17.462Z,7.02
2023-04-28T01:01:48.965Z,7.03
2023-04-28T01:04:22.198Z,7.03
2023-04-28T01:06:54.568Z,7.05
2023-04-28T01:09:25.361Z,7.06
2023-04-28T01:11:56.530Z,7.08
2023-04-28T01:14:28.017Z,7.09
2023-04-28T01:16:59.339Z,7.10
2023-04-28T01:19:30.379Z,7.12
2023-04-28T01:22:01.061Z,7.13
2023-04-28T01:24:32.077Z,7.12
2023-04-28T01:27:02.968Z,7.13
2023-04-28T01:29:34.134Z,7.13
2023-04-28T01:32:05.037Z,7.13
2023-04-28T01:34:35.998Z,7.13
2023-04-28T01:37:06.922Z,7.12
2023-04-28T01:39:37.375Z,7.12
2023-04-28T01:42:08.325Z,7.12
2023-04-28T01:44:38.985Z,7.11
2023-04-28T01:47:09.735Z,7.12
2023-04-28T01:49:40.351Z,7.12
2023-04-28T01:52:11.541Z,7.12
2023-04-28T01:54:42.542Z,7.11
2023-04-28T01:57:13.128Z,7.11
2023-04-28T01:59:44.361Z,7.11
2023-04-28T02:02:14.990Z,7.12
2023-04-28T02:04:45.858Z,7.13
2023-04-28T02:07:16.520Z,7.14
2023-04-28T02:09:47.553Z,7.14
2023-04-28T02:12:18.531Z,7.15
2023-04-28T02:14:49.430Z,7.15
2023-04-28T02:17:20.434Z,7.16
2023-04-28T02:19:55.210Z,7.18
2023-04-28T02:22:26.698Z,7.20
2023-04-28T02:24:58.244Z,7.21
2023-04-28T02:27:29.421Z,7.22
2023-04-28T02:30:00.105Z,7.24
2023-04-28T02:32:31.693Z,7.24
2023-04-28T02:35:02.665Z,7.24
2023-04-28T02:37:33.332Z,7.25
2023-04-28T02:40:04.418Z,7.25
2023-04-28T02:42:35.044Z,7.27
2023-04-28T02:45:06.404Z,7.26
2023-04-28T02:47:37.087Z,7.27
2023-04-28T02:50:09.971Z,7.27
2023-04-28T02:52:40.773Z,7.28
2023-04-28T02:55:11.948Z,7.29
2023-04-28T02:57:42.830Z,7.29
2023-04-28T03:00:15.758Z,7.31
2023-04-28T03:02:46.613Z,7.30
2023-04-28T03:05:17.318Z,7.31
2023-04-28T03:07:47.963Z,7.33
2023-04-28T03:10:18.835Z,7.32
2023-04-28T03:12:50.026Z,7.32
2023-04-28T03:15:20.831Z,7.33
2023-04-28T03:17:51.510Z,7.31
2023-04-28T03:20:22.077Z,7.33
2023-04-28T03:22:52.920Z,7.32
2023-04-28T03:25:23.778Z,7.31
2023-04-28T03:27:54.780Z,7.31
2023-04-28T03:30:25.458Z,7.31
2023-04-28T03:32:56.656Z,7.32
2023-04-28T03:35:27.695Z,7.32
2023-04-28T03:37:58.817Z,7.34
2023-04-28T03:40:29.443Z,7.34
2023-04-28T03:43:03.989Z,7.36
2023-04-28T03:45:35.248Z,7.37
2023-04-28T03:48:07.087Z,7.39
2023-04-28T03:50:38.210Z,7.40
2023-04-28T03:53:08.974Z,7.41
2023-04-28T03:55:39.716Z,7.41
2023-04-28T03:58:10.264Z,7.42
2023-04-28T04:00:40.844Z,7.42
2023-04-28T04:03:12.304Z,7.44
2023-04-28T04:05:44.047Z,7.44
2023-04-28T04:08:15.251Z,7.46
2023-04-28T04:10:46.317Z,7.48
2023-04-28T04:13:16.857Z,7.50
2023-04-28T04:15:47.824Z,7.51
2023-04-28T04:18:18.347Z,7.54
2023-04-28T04:20:49.797Z,7.55
2023-04-28T04:23:20.288Z,7.58
2023-04-28T04:25:51.603Z,7.59
2023-04-28T04:28:22.375Z,7.61
2023-04-28T04:30:53.823Z,7.62
2023-04-28T04:33:25.182Z,7.61
2023-04-28T04:35:56.714Z,7.62
2023-04-28T04:38:27.354Z,7.61
2023-04-28T04:40:57.930Z,7.62
2023-04-28T04:43:28.658Z,7.61
2023-04-28T04:45:59.362Z,7.60
2023-04-28T04:48:29.981Z,7.60
2023-04-28T04:51:00.969Z,7.60
2023-04-28T04:53:31.536Z,7.60
2023-04-28T04:56:02.706Z,7.62
2023-04-28T04:58:33.851Z,7.63
2023-04-28T05:01:04.592Z,7.64
2023-04-28T05:03:35.226Z,7.66
2023-04-28T05:06:06.492Z,7.71
2023-04-28T05:08:37.585Z,7.77
2023-04-28T05:11:08.454Z,7.85
2023-04-28T05:13:40.602Z,7.93
2023-04-28T05:16:11.460Z,8.02
2023-04-28T05:18:42.242Z,8.11
2023-04-28T05:21:16.534Z,8.17
2023-04-28T05:23:48.215Z,8.30
2023-04-28T05:26:19.103Z,8.40
2023-04-28T05:28:50.678Z,8.49
2023-04-28T05:31:21.734Z,8.60
2023-04-28T05:33:52.866Z,8.69
2023-04-28T05:36:24.444Z,8.77
2023-04-28T05:38:55.417Z,8.88
2023-04-28T05:41:26.248Z,8.95
2023-04-28T05:43:57.151Z,9.02
2023-04-28T05:46:31.028Z,9.09
2023-04-28T05:49:02.626Z,9.17
2023-04-28T05:51:33.789Z,9.24
2023-04-28T05:54:04.664Z,9.31
2023-04-28T05:56:36.015Z,9.36
2023-04-28T05:59:07.099Z,9.41
2023-04-28T06:01:38.732Z,9.46
2023-04-28T06:04:09.671Z,9.50
2023-04-28T06:06:40.791Z,9.54
2023-04-28T06:09:11.728Z,9.57
2023-04-28T06:11:42.262Z,9.61
2023-04-28T06:14:13.104Z,9.65
2023-04-28T06:16:43.784Z,9.69
2023-04-28T06:19:15.987Z,9.74
2023-04-28T06:21:47.041Z,9.78
2023-04-28T06:24:18.289Z,9.84
2023-04-28T06:26:49.488Z,9.89
2023-04-28T06:29:20.580Z,9.94
2023-04-28T06:31:52.759Z,9.98
2023-04-28T06:34:23.523Z,10.05
2023-04-28T06:36:54.631Z,10.12
2023-04-28T06:39:25.479Z,10.21
2023-04-28T06:41:56.086Z,10.29
2023-04-28T06:44:26.676Z,10.37
2023-04-28T06:46:57.374Z,10.43
2023-04-28T06:49:28.416Z,10.51
2023-04-28T06:51:59.073Z,10.56
2023-04-28T06:54:29.658Z,10.61
2023-04-28T06:57:00.339Z,10.66
2023-04-28T06:59:30.993Z,10.71
2023-04-28T07:02:02.600Z,10.77
2023-04-28T07:04:33.306Z,10.83
2023-04-28T07:07:07.557Z,10.88
2023-04-28T07:09:38.391Z,10.95
2023-04-28T07:12:09.825Z,11.02
2023-04-28T07:14:40.918Z,11.08
2023-04-28T07:17:11.567Z,11.14
2023-04-28T07:19:42.458Z,11.19
2023-04-28T07:22:13.371Z,11.24
2023-04-28T07:24:44.436Z,11.29
2023-04-28T07:27:15.233Z,11.35
2023-04-28T07:29:45.899Z,11.41
2023-04-28T07:32:17.270Z,11.48
2023-04-28T07:34:47.970Z,11.55
2023-04-28T07:37:19.105Z,11.60
2023-04-28T07:39:49.947Z,11.65
2023-04-28T07:42:21.398Z,11.70
2023-04-28T07:44:52.059Z,11.75
2023-04-28T07:47:23.153Z,11.79
2023-04-28T07:49:54.033Z,11.86
2023-04-28T07:52:25.274Z,11.91
2023-04-28T07:54:55.870Z,11.97
2023-04-28T07:57:29.386Z,12.03
2023-04-28T08:00:00.479Z,12.10
2023-04-28T08:02:32.157Z,12.16
2023-04-28T08:05:03.353Z,12.23
2023-04-28T08:07:34.388Z,12.29
2023-04-28T08:10:05.542Z,12.35
2023-04-28T08:12:36.364Z,12.38
2023-04-28T08:15:08.398Z,12.42
2023-04-28T08:17:39.301Z,12.48
2023-04-28T08:20:15.733Z,12.57
2023-04-28T08:22:46.500Z,12.66
2023-04-28T08:25:18.523Z,12.73
2023-04-28T08:27:49.174Z,12.78
2023-04-28T08:30:19.912Z,12.84
2023-04-28T08:32:50.674Z,12.88
2023-04-28T08:35:21.641Z,12.90
2023-04-28T08:37:53.065Z,12.93
2023-04-28T08:40:24.474Z,12.97
2023-04-28T08:42:56.344Z,13.00
2023-04-28T08:45:31.167Z,13.02
2023-04-28T08:48:04.878Z,13.05
2023-04-28T08:50:39.506Z,13.08
2023-04-28T08:53:13.357Z,13.14
2023-04-28T08:55:45.480Z,13.20
2023-04-28T08:58:17.768Z,13.25
2023-04-28T09:00:48.703Z,13.29
2023-04-28T09:03:19.773Z,13.33
2023-04-28T09:05:50.983Z,13.37
2023-04-28T09:08:21.610Z,13.45
2023-04-28T09:11:09.332Z,13.53
2023-04-28T09:13:41.064Z,13.63
2023-04-28T09:16:12.999Z,13.69
2023-04-28T09:18:56.621Z,13.75
2023-04-28T09:21:27.474Z,13.84
2023-04-28T09:23:58.996Z,13.93
2023-04-28T09:26:29.961Z,14.00
2023-04-28T09:29:14.677Z,14.08
2023-04-28T09:31:46.022Z,14.20
2023-04-28T09:34:17.168Z,14.28
2023-04-28T09:36:48.111Z,14.36
2023-04-28T09:39:31.530Z,14.42
2023-04-28T09:42:03.667Z,14.50
2023-04-28T09:44:34.514Z,14.56
2023-04-28T09:47:22.759Z,14.60
2023-04-28T09:50:01.114Z,14.63
2023-04-28T09:52:34.230Z,14.64
2023-04-28T09:55:06.986Z,14.67
2023-04-28T09:57:38.246Z,14.68
2023-04-28T10:00:11.406Z,14.69
2023-04-28T10:02:44.080Z,14.70
2023-04-28T10:05:18.051Z,14.70
2023-04-28T10:07:48.845Z,14.72
2023-04-28T10:10:19.941Z,14.74
2023-04-28T10:12:52.407Z,14.76
2023-04-28T10:15:24.326Z,14.79
2023-04-28T10:17:56.546Z,14.80
2023-04-28T10:20:28.513Z,14.84
2023-04-28T10:23:10.184Z,14.86
2023-04-28T10:25:41.301Z,14.88
2023-04-28T10:28:12.314Z,14.89
2023-04-28T10:30:42.793Z,14.88
2023-04-28T10:33:28.870Z,14.88
2023-04-28T10:36:00.018Z,14.90
2023-04-28T10:38:30.951Z,14.92
2023-04-28T10:41:03.379Z,14.96
2023-04-28T10:43:39.615Z,15.02
2023-04-28T10:46:14.120Z,15.07
2023-04-28T10:48:58.589Z,15.13
2023-04-28T10:51:33.403Z,15.21
2023-04-28T10:54:28.258Z,15.26
2023-04-28T10:57:22.762Z,15.35
2023-04-28T10:59:54.180Z,15.44
2023-04-28T11:02:47.136Z,15.53
2023-04-28T11:05:20.189Z,15.62
2023-04-28T11:08:31.779Z,15.68
2023-04-28T11:11:22.139Z,15.76
2023-04-28T11:13:54.283Z,15.79
2023-04-28T11:16:27.010Z,15.80
2023-04-28T11:19:05.688Z,15.78
2023-04-28T11:21:36.384Z,15.79
2023-04-28T11:24:12.633Z,15.79
2023-04-28T11:26:44.078Z,15.79
2023-04-28T11:29:15.532Z,15.78
2023-04-28T11:31:53.623Z,15.78
2023-04-28T11:34:25.927Z,15.75
2023-04-28T11:36:56.807Z,15.77
2023-04-28T11:39:31.533Z,15.79
2023-04-28T11:42:03.731Z,15.84
2023-04-28T11:44:34.817Z,15.89
2023-04-28T11:47:06.972Z,15.92
2023-04-28T11:49:46.720Z,15.94
2023-04-28T11:52:17.278Z,15.93
2023-04-28T11:54:54.142Z,15.94
2023-04-28T11:57:25.402Z,15.98
2023-04-28T12:00:12.611Z,16.01
2023-04-28T12:02:43.282Z,16.04
2023-04-28T12:05:14.865Z,16.06
2023-04-28T12:07:46.687Z,16.10
2023-04-28T12:10:18.943Z,16.16
2023-04-28T12:12:53.157Z,16.21
2023-04-28T12:15:25.425Z,16.28
2023-04-28T12:17:56.908Z,16.28
2023-04-28T12:20:40.950Z,16.25
2023-04-28T12:23:11.850Z,16.22
2023-04-28T12:25:49.323Z,16.17
2023-04-28T12:28:19.868Z,16.10
2023-04-28T12:30:50.997Z,16.06
2023-04-28T12:33:29.966Z,16.01
2023-04-28T12:36:01.448Z,15.94
2023-04-28T12:38:32.610Z,15.91
2023-04-28T12:41:03.364Z,15.89
2023-04-28T12:43:34.765Z,15.87
2023-04-28T12:46:05.450Z,15.82
2023-04-28T12:48:36.071Z,15.74
2023-04-28T12:51:06.800Z,15.68
2023-04-28T12:53:37.428Z,15.59
2023-04-28T12:56:08.726Z,15.47
2023-04-28T12:58:39.292Z,15.44
2023-04-28T13:01:10.039Z,15.43
2023-04-28T13:03:41.222Z,15.39
2023-04-28T13:06:12.194Z,15.38
2023-04-28T13:08:42.980Z,15.42
2023-04-28T13:13:50.530Z,15.57
2023-04-28T13:16:28.867Z,15.68
2023-04-28T13:18:59.949Z,15.81
2023-04-28T13:21:31.935Z,15.93
2023-04-28T13:24:04.198Z,15.99
2023-04-28T13:26:35.023Z,16.03
2023-04-28T13:29:06.099Z,16.10
2023-04-28T13:31:37.135Z,16.16
2023-04-28T13:34:09.621Z,16.15
2023-04-28T13:36:40.230Z,16.16
2023-04-28T13:39:14.114Z,16.17
2023-04-28T13:41:44.682Z,16.14
2023-04-28T13:44:15.599Z,16.16
2023-04-28T13:46:47.277Z,16.21
2023-04-28T13:49:18.611Z,16.26
2023-04-28T13:51:49.779Z,16.25
2023-04-28T13:54:21.298Z,16.22
2023-04-28T13:56:52.056Z,16.19
2023-04-28T13:59:22.670Z,16.18
2023-04-28T14:01:53.338Z,16.14
2023-04-28T14:04:24.213Z,16.07
2023-04-28T14:06:55.074Z,16.03
2023-04-28T14:09:26.258Z,16.03
2023-04-28T14:11:58.442Z,16.04
2023-04-28T14:14:29.123Z,16.04
2023-04-28T14:16:59.955Z,16.05
2023-04-28T14:19:30.842Z,16.03
2023-04-28T14:22:02.202Z,16.03
2023-04-28T14:24:32.913Z,16.02
2023-04-28T14:27:03.786Z,16.02
2023-04-28T14:29:34.311Z,16.04
2023-04-28T14:32:04.898Z,16.06
2023-04-28T14:34:35.554Z,16.07
2023-04-28T14:37:06.423Z,16.02
2023-04-28T14:39:37.125Z,15.97
2023-04-28T14:42:07.911Z,15.93
2023-04-28T14:44:38.694Z,15.92
2023-04-28T14:47:09.694Z,15.95
2023-04-28T14:49:40.311Z,15.99
2023-04-28T14:52:10.879Z,16.04
2023-04-28T14:54:41.981Z,16.05
2023-04-28T14:57:13.388Z,16.03
2023-04-28T14:59:43.955Z,16.02
2023-04-28T15:02:14.944Z,16.01
2023-04-28T15:04:46.295Z,16.01
2023-04-28T15:07:17.349Z,16.03
2023-04-28T15:09:47.973Z,16.05
2023-04-28T15:12:18.822Z,16.06
2023-04-28T15:14:50.513Z,16.07
2023-04-28T15:17:23.125Z,16.06
2023-04-28T15:19:57.388Z,16.06
2023-04-28T15:22:28.579Z,16.03
2023-04-28T15:24:59.159Z,15.98
2023-04-28T15:27:29.804Z,15.96
2023-04-28T15:30:00.318Z,15.95
2023-04-28T15:32:32.387Z,15.96
2023-04-28T15:35:04.408Z,15.96
2023-04-28T15:37:44.610Z,15.93
2023-04-28T15:40:17.573Z,15.90
2023-04-28T15:42:51.526Z,15.88
2023-04-28T15:45:23.363Z,15.87
2023-04-28T15:47:55.062Z,15.85
2023-04-28T15:50:27.515Z,15.82
2023-04-28T15:52:58.122Z,15.76
2023-04-28T15:55:28.643Z,15.72
2023-04-28T15:57:59.220Z,15.65
2023-04-28T16:00:29.807Z,15.57
2023-04-28T16:03:01.520Z,15.49
2023-04-28T16:05:32.453Z,15.42
2023-04-28T16:08:03.205Z,15.37
2023-04-28T16:10:34.617Z,15.33
2023-04-28T16:13:10.806Z,15.28
2023-04-28T16:15:41.928Z,15.22
2023-04-28T16:18:12.889Z,15.18
2023-04-28T16:20:44.275Z,15.14
2023-04-28T16:23:14.988Z,15.09
2023-04-28T16:25:45.599Z,15.05
2023-04-28T16:28:16.150Z,15.04
2023-04-28T16:30:47.878Z,15.03
2023-04-28T16:33:18.498Z,15.02
2023-04-28T16:35:56.690Z,15.00
2023-04-28T16:38:27.188Z,14.98
2023-04-28T16:40:57.721Z,14.97
2023-04-28T16:43:28.284Z,14.96
2023-04-28T16:45:59.500Z,14.95
2023-04-28T16:48:30.546Z,14.94
2023-04-28T16:51:01.185Z,14.89
2023-04-28T16:53:31.677Z,14.88
2023-04-28T16:56:02.574Z,14.86
2023-04-28T16:58:33.179Z,14.85
2023-04-28T17:01:04.151Z,14.82
2023-04-28T17:03:41.007Z,14.79
2023-04-28T17:06:12.360Z,14.78
2023-04-28T17:08:43.176Z,14.77
2023-04-28T17:11:18.814Z,14.75
2023-04-28T17:13:49.372Z,14.73
2023-04-28T17:16:20.516Z,14.72
2023-04-28T17:18:52.859Z,14.70
2023-04-28T17:21:23.414Z,14.66
2023-04-28T17:23:54.235Z,14.63
2023-04-28T17:26:24.789Z,14.59
2023-04-28T17:28:56.515Z,14.55
2023-04-28T17:31:27.176Z,14.51
2023-04-28T17:33:59.195Z,14.47
2023-04-28T17:36:30.502Z,14.42
2023-04-28T17:39:01.441Z,14.39
2023-04-28T17:41:32.273Z,14.36
2023-04-28T17:44:02.880Z,14.32
2023-04-28T17:46:33.471Z,14.27
2023-04-28T17:49:04.134Z,14.23
2023-04-28T17:51:34.789Z,14.17
2023-04-28T17:54:06.303Z,14.10
2023-04-28T17:56:39.099Z,14.05
2023-04-28T17:59:09.672Z,14.01
2023-04-28T18:01:40.212Z,13.96
2023-04-28T18:04:11.116Z,13.91
2023-04-28T18:06:41.788Z,13.85
2023-04-28T18:09:12.417Z,13.80
2023-04-28T18:11:42.961Z,13.76
2023-04-28T18:14:15.425Z,13.74
2023-04-28T18:16:46.516Z,13.71
2023-04-28T18:19:17.319Z,13.67
2023-04-28T18:21:48.324Z,13.62
2023-04-28T18:24:18.827Z,13.57
2023-04-28T18:26:49.306Z,13.53
2023-04-28T18:29:20.533Z,13.47
2023-04-28T18:31:51.684Z,13.42
2023-04-28T18:34:22.340Z,13.39
2023-04-28T18:36:53.295Z,13.37
2023-04-28T18:39:24.169Z,13.34
2023-04-28T18:41:54.634Z,13.28
2023-04-28T18:44:25.128Z,13.22
2023-04-28T18:46:56.849Z,13.16
2023-04-28T18:49:27.789Z,13.12
2023-04-28T18:52:02.428Z,13.09
2023-04-28T18:54:32.994Z,13.08
2023-04-28T18:57:03.535Z,13.07
2023-04-28T18:59:34.837Z,13.04
2023-04-28T19:02:06.008Z,13.04
2023-04-28T19:04:39.019Z,13.04
2023-04-28T19:07:10.238Z,13.04
2023-04-28T19:09:42.238Z,13.03
2023-04-28T19:12:12.918Z,13.01
2023-04-28T19:14:43.729Z,12.98
2023-04-28T19:17:14.363Z,12.95
2023-04-28T19:19:45.079Z,12.93
2023-04-28T19:22:33.500Z,12.90
2023-04-28T19:25:04.578Z,12.87
2023-04-28T19:27:36.998Z,12.84
2023-04-28T19:30:10.941Z,12.82
2023-04-28T19:32:42.613Z,12.82
2023-04-28T19:35:14.520Z,12.82
2023-04-28T19:37:45.177Z,12.83
2023-04-28T19:40:17.526Z,12.83
2023-04-28T19:42:48.414Z,12.82
2023-04-28T19:45:19.046Z,12.81
2023-04-28T19:47:49.803Z,12.80
2023-04-28T19:50:20.614Z,12.79
2023-04-28T19:52:51.308Z,12.78
2023-04-28T19:55:23.255Z,12.77
2023-04-28T19:57:55.881Z,12.74
2023-04-28T20:00:27.443Z,12.70
2023-04-28T20:02:58.764Z,12.68
2023-04-28T20:05:30.584Z,12.67
2023-04-28T20:08:02.352Z,12.65
2023-04-28T20:10:33.231Z,12.65
2023-04-28T20:13:04.445Z,12.65
2023-04-28T20:15:36.264Z,12.64
2023-04-28T20:18:06.831Z,12.64
2023-04-28T20:20:37.695Z,12.65
2023-04-28T20:23:08.427Z,12.65
2023-04-28T20:25:39.666Z,12.66
2023-04-28T20:28:10.287Z,12.67
2023-04-28T20:30:42.974Z,12.65
2023-04-28T20:33:13.405Z,12.67
2023-04-28T20:35:44.342Z,12.68
2023-04-28T20:38:14.905Z,12.69
2023-04-28T20:40:45.510Z,12.71
2023-04-28T20:43:16.037Z,12.73
2023-04-28T20:45:46.981Z,12.75
2023-04-28T20:48:18.553Z,12.75
2023-04-28T20:50:52.984Z,12.76
2023-04-28T20:53:23.621Z,12.76
2023-04-28T20:55:54.314Z,12.76
2023-04-28T20:58:24.905Z,12.76
2023-04-28T21:00:55.469Z,12.76
2023-04-28T21:03:26.057Z,12.76
2023-04-28T21:05:56.646Z,12.77
2023-04-28T21:08:27.165Z,12.78
2023-04-28T21:10:58.068Z,12.79
2023-04-28T21:13:28.733Z,12.78
2023-04-28T21:15:59.516Z,12.78
2023-04-28T21:18:30.417Z,12.76
2023-04-28T21:21:02.081Z,12.73
2023-04-28T21:23:32.655Z,12.71
2023-04-28T21:26:03.255Z,12.68
2023-04-28T21:28:34.888Z,12.68
2023-04-28T21:31:05.917Z,12.68
2023-04-28T21:33:36.488Z,12.67
2023-04-28T21:36:09.265Z,12.63
2023-04-28T21:38:39.888Z,12.62
2023-04-28T21:41:12.376Z,12.61
2023-04-28T21:43:43.034Z,12.61
2023-04-28T21:46:14.001Z,12.62
2023-04-28T21:48:44.708Z,12.63
2023-04-28T21:51:16.644Z,12.64
2023-04-28T21:53:47.360Z,12.66
2023-04-28T21:56:18.030Z,12.66
2023-04-28T21:58:48.688Z,12.67
2023-04-28T22:01:19.669Z,12.65
2023-04-28T22:03:50.713Z,12.66
2023-04-28T22:06:21.944Z,12.65
2023-04-28T22:08:52.874Z,12.63
2023-04-28T22:11:26.590Z,12.63
2023-04-28T22:13:57.309Z,12.62
2023-04-28T22:16:28.175Z,12.62
2023-04-28T22:18:58.924Z,12.61
2023-04-28T22:21:30.275Z,12.61
2023-04-28T22:24:01.266Z,12.61
2023-04-28T22:26:32.295Z,12.62
2023-04-28T22:29:03.126Z,12.62
2023-04-28T22:31:34.133Z,12.62
2023-04-28T22:34:09.746Z,12.62
2023-04-28T22:36:40.677Z,12.61
2023-04-28T22:39:11.883Z,12.61
2023-04-28T22:41:42.562Z,12.62
2023-04-28T22:44:13.552Z,12.62
2023-04-28T22:46:44.330Z,12.63
2023-04-28T22:49:15.426Z,12.64
2023-04-28T22:51:46.345Z,12.65
2023-04-28T22:54:17.251Z,12.66
2023-04-28T22:56:48.224Z,12.66
2023-04-28T22:59:18.931Z,12.67
2023-04-28T23:01:49.585Z,12.66
2023-04-28T23:04:20.949Z,12.67
2023-04-28T23:06:52.878Z,12.68
2023-04-28T23:09:23.587Z,12.68
2023-04-28T23:11:54.594Z,12.69
2023-04-28T23:14:25.459Z,12.70
2023-04-28T23:16:56.284Z,12.70
2023-04-28T23:19:27.074Z,12.69
2023-04-28T23:21:57.914Z,12.70
2023-04-28T23:24:29.254Z,12.70
2023-04-28T23:27:00.148Z,12.69
2023-04-28T23:29:31.203Z,12.68
2023-04-28T23:32:02.085Z,12.66
2023-04-28T23:34:32.822Z,12.68
2023-04-28T23:37:03.482Z,12.68
2023-04-28T23:39:34.405Z,12.69
2023-04-28T23:42:14.142Z,12.68
2023-04-28T23:44:44.822Z,12.69
2023-04-28T23:47:15.805Z,12.68
2023-04-28T23:49:46.900Z,12.69
2023-04-28T23:52:18.536Z,12.68
2023-04-28T23:54:49.233Z,12.68
2023-04-28T23:57:20.361Z,12.67
2023-04-28T23:59:51.657Z,12.66
